createdAt,value
2022-11-13T00:01:08.166Z,14.95
2022-11-13T00:03:36.131Z,14.93
2022-11-13T00:06:04.341Z,15.77
2022-11-13T00:08:33.842Z,15.15
2022-11-13T00:11:03.023Z,17.00
2022-11-13T00:13:31.045Z,15.60
2022-11-13T00:16:00.379Z,15.07
2022-11-13T00:18:29.975Z,16.08
2022-11-13T00:20:59.749Z,17.40
2022-11-13T00:23:27.705Z,14.30
2022-11-13T00:25:57.043Z,15.50
2022-11-13T00:28:25.206Z,14.10
2022-11-13T00:30:59.747Z,14.75
2022-11-13T00:33:54.998Z,13.52
2022-11-13T00:36:23.603Z,13.90
2022-11-13T00:38:54.525Z,13.20
2022-11-13T00:41:24.468Z,12.10
2022-11-13T00:43:52.597Z,12.63
2022-11-13T00:46:21.124Z,13.02
2022-11-13T00:48:49.242Z,11.45
2022-11-13T00:51:17.260Z,10.68
2022-11-13T00:53:45.230Z,11.40
2022-11-13T00:56:13.266Z,10.82
2022-11-13T00:58:42.652Z,9.35
2022-11-13T01:01:13.599Z,10.00
2022-11-13T01:03:42.202Z,10.18
2022-11-13T01:06:14.915Z,7.15
2022-11-13T01:08:43.318Z,8.63
2022-11-13T01:11:12.729Z,8.77
2022-11-13T01:13:43.196Z,9.57
2022-11-13T01:16:13.035Z,8.57
2022-11-13T01:18:42.735Z,8.35
2022-11-13T01:21:12.603Z,7.97
2022-11-13T01:23:41.394Z,8.02
2022-11-13T01:26:12.227Z,7.85
2022-11-13T01:28:43.014Z,7.50
2022-11-13T01:31:13.456Z,7.82
2022-11-13T01:33:41.440Z,8.07
2022-11-13T01:36:12.833Z,8.07
2022-11-13T01:38:41.122Z,7.70
2022-11-13T01:41:09.930Z,8.02
2022-11-13T01:43:39.829Z,5.65
2022-11-13T01:46:19.039Z,7.63
2022-11-13T01:48:51.284Z,7.47
2022-11-13T01:51:27.042Z,8.40
2022-11-13T01:53:57.075Z,7.78
2022-11-13T01:56:25.230Z,7.72
2022-11-13T01:59:02.976Z,7.30
2022-11-13T02:01:32.401Z,8.77
2022-11-13T02:04:00.685Z,7.80
2022-11-13T02:06:34.229Z,7.82
2022-11-13T02:09:02.927Z,7.55
2022-11-13T02:11:31.078Z,7.88
2022-11-13T02:14:00.504Z,7.97
2022-11-13T02:16:30.806Z,7.78
2022-11-13T02:19:01.286Z,7.80
2022-11-13T02:21:37.301Z,7.30
2022-11-13T02:24:27.147Z,7.53
2022-11-13T02:26:57.607Z,8.23
2022-11-13T02:29:25.606Z,7.38
2022-11-13T02:31:53.653Z,7.25
2022-11-13T02:34:21.771Z,8.13
2022-11-13T02:36:50.067Z,7.15
2022-11-13T02:39:19.622Z,8.10
2022-11-13T02:44:15.492Z,6.82
2022-11-13T02:46:43.993Z,7.57
2022-11-13T02:49:12.001Z,8.05
2022-11-13T02:51:40.010Z,8.07
2022-11-13T02:54:10.736Z,7.28
2022-11-13T02:56:42.287Z,8.02
2022-11-13T02:59:10.328Z,7.72
2022-11-13T03:01:38.347Z,8.02
2022-11-13T03:04:06.382Z,8.13
2022-11-13T03:06:34.363Z,8.38
2022-11-13T03:09:02.399Z,8.55
2022-11-13T03:11:30.410Z,8.75
2022-11-13T03:13:59.735Z,10.70
2022-11-13T03:16:27.744Z,11.80
2022-11-13T03:18:56.904Z,9.77
2022-11-13T03:21:24.860Z,11.20
2022-11-13T03:23:54.572Z,10.25
2022-11-13T03:26:22.583Z,9.57
2022-11-13T03:28:51.146Z,9.20
2022-11-13T03:31:20.570Z,6.90
2022-11-13T03:33:48.591Z,11.88
2022-11-13T03:36:16.574Z,10.00
2022-11-13T03:38:44.564Z,9.85
2022-11-13T03:41:14.755Z,9.88
2022-11-13T03:43:42.955Z,11.00
2022-11-13T03:46:11.035Z,12.50
2022-11-13T03:48:40.427Z,14.32
2022-11-13T03:51:08.630Z,13.05
2022-11-13T03:53:36.645Z,12.23
2022-11-13T03:56:04.807Z,13.32
2022-11-13T03:58:34.104Z,13.15
2022-11-13T04:01:04.338Z,21.40
2022-11-13T04:03:32.319Z,26.38
2022-11-13T04:06:01.663Z,31.70
2022-11-13T04:08:29.960Z,34.53
2022-11-13T04:11:07.383Z,38.03
2022-11-13T04:13:35.387Z,42.25
2022-11-13T04:16:03.506Z,39.55
2022-11-13T04:18:31.573Z,43.28
2022-11-13T04:21:02.108Z,43.72
2022-11-13T04:23:30.390Z,46.28
2022-11-13T04:25:58.538Z,45.53
2022-11-13T04:28:26.931Z,49.38
2022-11-13T04:30:55.659Z,51.77
2022-11-13T04:33:23.649Z,49.42
2022-11-13T04:35:51.719Z,45.28
2022-11-13T04:38:21.072Z,47.53
2022-11-13T04:40:51.475Z,43.78
2022-11-13T04:43:18.512Z,44.60
2022-11-13T04:45:46.461Z,43.70
2022-11-13T04:48:14.443Z,44.72
2022-11-13T04:50:42.662Z,47.38
2022-11-13T04:53:10.652Z,43.30
2022-11-13T04:55:39.978Z,46.72
2022-11-13T04:58:08.056Z,42.10
2022-11-13T05:00:36.031Z,43.58
2022-11-13T05:03:04.074Z,45.90
2022-11-13T05:05:32.055Z,46.40
2022-11-13T05:08:00.030Z,43.90
2022-11-13T05:10:28.027Z,40.70
2022-11-13T05:12:58.750Z,45.40
2022-11-13T05:15:26.787Z,44.55
2022-11-13T05:17:55.092Z,44.38
2022-11-13T05:20:23.074Z,40.88
2022-11-13T05:22:51.087Z,38.90
2022-11-13T05:25:19.140Z,43.90
2022-11-13T05:27:47.158Z,40.67
2022-11-13T05:30:17.535Z,44.35
2022-11-13T05:32:45.506Z,39.88
2022-11-13T05:35:13.498Z,40.97
2022-11-13T05:37:41.525Z,41.63
2022-11-13T05:40:10.846Z,43.25
2022-11-13T05:42:38.889Z,41.97
2022-11-13T05:45:07.556Z,42.88
2022-11-13T05:47:36.918Z,37.97
2022-11-13T05:50:05.610Z,41.30
2022-11-13T05:52:33.615Z,43.72
2022-11-13T05:55:01.606Z,42.63
2022-11-13T05:57:29.623Z,42.70
2022-11-13T05:59:57.674Z,43.40
2022-11-13T06:02:25.777Z,42.85
2022-11-13T06:04:56.534Z,40.65
2022-11-13T06:07:24.747Z,39.75
2022-11-13T06:09:52.831Z,45.75
2022-11-13T06:12:20.877Z,43.90
2022-11-13T06:14:48.918Z,40.47
2022-11-13T06:17:16.916Z,42.45
2022-11-13T06:19:45.197Z,38.25
2022-11-13T06:22:14.648Z,38.63
2022-11-13T06:24:42.648Z,40.70
2022-11-13T06:27:10.699Z,38.95
2022-11-13T06:29:38.680Z,38.38
2022-11-13T06:32:06.848Z,37.63
2022-11-13T06:34:34.872Z,38.35
2022-11-13T06:37:02.908Z,39.55
2022-11-13T06:39:32.265Z,37.95
2022-11-13T06:42:00.264Z,39.13
2022-11-13T06:44:28.220Z,39.22
2022-11-13T06:46:56.280Z,37.38
2022-11-13T06:49:24.297Z,35.22
2022-11-13T06:51:52.376Z,37.95
2022-11-13T06:54:20.392Z,36.28
2022-11-13T06:56:49.752Z,37.58
2022-11-13T06:59:17.727Z,36.03
2022-11-13T07:01:45.725Z,39.92
2022-11-13T07:04:14.328Z,34.20
2022-11-13T07:06:42.394Z,35.90
2022-11-13T07:09:10.405Z,36.95
2022-11-13T07:11:38.383Z,37.50
2022-11-13T07:14:07.985Z,38.05
2022-11-13T07:17:04.220Z,34.35
2022-11-13T07:19:23.979Z,35.53
2022-11-13T07:21:51.980Z,36.90
2022-11-13T07:24:19.979Z,35.50
2022-11-13T07:26:48.045Z,39.95
2022-11-13T07:29:17.354Z,37.15
2022-11-13T07:31:45.333Z,35.20
2022-11-13T07:34:14.736Z,40.78
2022-11-13T07:36:42.724Z,46.78
2022-11-13T07:39:10.693Z,35.53
2022-11-13T07:41:38.732Z,40.67
2022-11-13T07:44:09.408Z,31.40
2022-11-13T07:46:39.359Z,34.53
2022-11-13T07:49:07.502Z,36.00
2022-11-13T07:51:35.508Z,31.92
2022-11-13T07:54:03.518Z,34.60
2022-11-13T07:56:31.491Z,36.30
2022-11-13T07:58:59.705Z,35.70
2022-11-13T08:01:27.951Z,34.88
2022-11-13T08:03:59.367Z,34.65
2022-11-13T08:06:28.015Z,31.30
2022-11-13T08:08:56.009Z,36.00
2022-11-13T08:11:24.011Z,34.50
2022-11-13T08:13:53.643Z,31.25
2022-11-13T08:18:51.455Z,29.13
2022-11-13T08:21:21.453Z,33.25
2022-11-13T08:23:50.262Z,31.80
2022-11-13T08:26:19.068Z,36.92
2022-11-13T08:28:47.555Z,35.88
2022-11-13T08:31:16.932Z,36.30
2022-11-13T08:33:44.959Z,35.58
2022-11-13T08:36:13.186Z,33.10
2022-11-13T08:38:42.535Z,33.15
2022-11-13T08:41:10.562Z,31.65
2022-11-13T08:43:38.967Z,34.20
2022-11-13T08:46:07.273Z,30.25
2022-11-13T08:48:35.607Z,32.72
2022-11-13T08:51:03.619Z,29.02
2022-11-13T08:53:31.696Z,28.65
2022-11-13T08:56:02.956Z,29.52
2022-11-13T08:58:31.407Z,29.30
2022-11-13T09:01:03.479Z,28.87
2022-11-13T09:03:31.838Z,28.77
2022-11-13T09:05:59.885Z,28.77
2022-11-13T09:08:28.227Z,30.38
2022-11-13T09:10:56.420Z,27.98
2022-11-13T09:13:25.822Z,27.80
2022-11-13T09:15:53.832Z,29.48
2022-11-13T09:18:21.812Z,27.48
2022-11-13T09:20:49.836Z,27.65
2022-11-13T09:23:17.872Z,29.58
2022-11-13T09:25:45.888Z,26.85
2022-11-13T09:28:14.265Z,27.92
2022-11-13T09:30:43.691Z,27.52
2022-11-13T09:33:15.304Z,27.33
2022-11-13T09:35:44.408Z,26.10
2022-11-13T09:38:14.494Z,26.23
2022-11-13T09:40:47.601Z,26.23
2022-11-13T09:43:25.719Z,25.40
2022-11-13T09:46:00.833Z,26.95
2022-11-13T09:48:34.605Z,24.55
2022-11-13T09:51:07.452Z,25.10
2022-11-13T09:53:40.087Z,27.05
2022-11-13T09:56:28.135Z,25.50
2022-11-13T09:59:03.175Z,25.70
2022-11-13T10:01:43.929Z,24.95
2022-11-13T10:04:15.297Z,25.05
2022-11-13T10:06:55.815Z,25.52
2022-11-13T10:09:32.260Z,25.20
2022-11-13T10:12:06.537Z,24.58
2022-11-13T10:14:42.899Z,29.10
2022-11-13T10:17:19.809Z,25.42
2022-11-13T10:19:56.019Z,23.95
2022-11-13T10:22:33.265Z,26.90
2022-11-13T10:25:11.606Z,27.27
2022-11-13T10:27:39.956Z,27.25
2022-11-13T10:30:15.870Z,29.08
2022-11-13T10:32:46.485Z,25.77
2022-11-13T10:35:38.150Z,25.55
2022-11-13T10:38:09.139Z,24.10
2022-11-13T10:40:38.732Z,24.05
2022-11-13T10:45:35.672Z,22.27
2022-11-13T10:48:05.495Z,24.23
2022-11-13T10:50:34.179Z,24.38
2022-11-13T10:53:02.143Z,23.77
2022-11-13T10:55:39.247Z,25.67
2022-11-13T10:58:14.631Z,24.90
2022-11-13T11:00:44.905Z,25.45
2022-11-13T11:03:20.391Z,25.05
2022-11-13T11:05:56.453Z,24.58
2022-11-13T11:08:31.014Z,24.45
2022-11-13T11:11:19.530Z,24.90
2022-11-13T11:13:49.503Z,22.67
2022-11-13T11:16:21.220Z,24.40
2022-11-13T11:18:54.700Z,22.63
2022-11-13T11:21:26.062Z,23.70
2022-11-13T11:23:59.766Z,24.92
2022-11-13T11:26:33.541Z,24.55
2022-11-13T11:29:15.651Z,26.88
2022-11-13T11:31:51.437Z,26.77
2022-11-13T11:34:26.126Z,25.83
2022-11-13T11:37:01.955Z,26.63
2022-11-13T11:39:36.567Z,28.02
2022-11-13T11:42:27.578Z,26.67
2022-11-13T11:45:13.136Z,28.15
2022-11-13T11:47:41.392Z,29.35
2022-11-13T11:50:15.284Z,30.90
2022-11-13T11:53:05.086Z,28.83
2022-11-13T11:55:44.816Z,28.55
2022-11-13T11:58:26.152Z,30.83
2022-11-13T12:01:05.696Z,30.30
2022-11-13T12:04:07.991Z,30.88
2022-11-13T12:06:50.664Z,30.17
2022-11-13T12:09:25.969Z,30.58
2022-11-13T12:12:01.960Z,31.90
2022-11-13T12:14:39.074Z,33.20
2022-11-13T12:17:27.783Z,30.70
2022-11-13T12:20:06.910Z,28.85
2022-11-13T12:22:46.436Z,30.55
2022-11-13T12:27:55.442Z,26.27
2022-11-13T12:30:28.695Z,27.00
2022-11-13T12:33:10.262Z,31.70
2022-11-13T12:35:39.419Z,28.83
2022-11-13T12:38:30.240Z,30.20
2022-11-13T12:41:04.261Z,30.15
2022-11-13T12:43:48.876Z,28.17
2022-11-13T12:46:18.590Z,29.92
2022-11-13T12:48:48.080Z,29.10
2022-11-13T12:53:49.762Z,27.50
2022-11-13T12:56:32.294Z,27.13
2022-11-13T12:59:29.699Z,26.48
2022-11-13T13:01:57.978Z,27.33
2022-11-13T13:04:44.306Z,27.13
2022-11-13T13:07:26.464Z,26.15
2022-11-13T13:10:05.953Z,28.98
2022-11-13T13:15:27.187Z,24.27
2022-11-13T13:18:05.405Z,26.05
2022-11-13T13:20:36.747Z,25.83
2022-11-13T13:23:08.616Z,29.08
2022-11-13T13:25:38.943Z,26.27
2022-11-13T13:28:21.213Z,26.40
2022-11-13T13:30:58.157Z,26.98
2022-11-13T13:33:33.519Z,26.33
2022-11-13T13:36:16.759Z,28.05
2022-11-13T13:38:52.696Z,25.60
2022-11-13T13:41:34.615Z,25.75
2022-11-13T13:44:19.440Z,27.00
2022-11-13T13:46:47.613Z,25.60
2022-11-13T13:49:18.724Z,25.70
2022-11-13T13:51:50.282Z,25.45
2022-11-13T13:54:21.634Z,25.63
2022-11-13T13:56:51.407Z,26.27
2022-11-13T13:59:30.052Z,24.20
2022-11-13T14:02:00.451Z,25.17
2022-11-13T14:04:30.233Z,24.75
2022-11-13T14:06:59.863Z,26.75
2022-11-13T14:09:29.840Z,28.58
2022-11-13T14:12:03.604Z,27.20
2022-11-13T14:14:36.036Z,28.38
2022-11-13T14:17:04.042Z,28.75
2022-11-13T14:19:32.054Z,27.15
2022-11-13T14:22:01.805Z,27.52
2022-11-13T14:24:34.602Z,27.65
2022-11-13T14:27:07.708Z,28.65
2022-11-13T14:29:38.653Z,25.77
2022-11-13T14:32:11.556Z,30.65
2022-11-13T14:34:43.827Z,29.38
2022-11-13T14:37:25.103Z,29.08
2022-11-13T14:39:53.955Z,29.00
2022-11-13T14:42:27.511Z,30.70
2022-11-13T14:45:06.146Z,33.88
2022-11-13T14:47:37.630Z,31.58
2022-11-13T14:50:21.816Z,31.98
2022-11-13T14:53:01.431Z,30.80
2022-11-13T14:55:31.603Z,28.92
2022-11-13T14:58:00.978Z,32.00
2022-11-13T15:00:33.157Z,31.60
2022-11-13T15:03:02.132Z,30.90
2022-11-13T15:05:30.306Z,32.53
2022-11-13T15:07:58.713Z,32.65
2022-11-13T15:10:29.367Z,34.40
2022-11-13T15:12:57.361Z,32.88
2022-11-13T15:15:30.178Z,35.78
2022-11-13T15:17:58.449Z,34.65
2022-11-13T15:20:29.170Z,35.58
2022-11-13T15:22:59.716Z,34.40
2022-11-13T15:25:28.401Z,33.05
2022-11-13T15:27:56.380Z,36.20
2022-11-13T15:30:25.836Z,36.72
2022-11-13T15:35:22.788Z,33.30
2022-11-13T15:37:50.822Z,34.72
2022-11-13T15:40:19.044Z,36.83
2022-11-13T15:42:47.375Z,35.88
2022-11-13T15:45:17.328Z,35.83
2022-11-13T15:47:46.721Z,34.42
2022-11-13T15:50:15.870Z,36.83
2022-11-13T15:57:50.556Z,34.60
2022-11-13T16:00:21.261Z,35.17
2022-11-13T16:02:51.966Z,39.58
2022-11-13T16:05:19.956Z,38.08
2022-11-13T16:07:47.944Z,40.88
2022-11-13T16:10:16.497Z,37.13
2022-11-13T16:12:45.760Z,38.33
2022-11-13T16:15:15.631Z,38.97
2022-11-13T16:17:47.249Z,36.03
2022-11-13T16:20:18.679Z,37.95
2022-11-13T16:22:47.187Z,37.63
2022-11-13T16:25:17.097Z,33.83
2022-11-13T16:27:45.949Z,36.50
2022-11-13T16:30:20.796Z,28.08
2022-11-13T16:32:48.972Z,38.13
2022-11-13T16:35:20.297Z,37.70
2022-11-13T16:37:48.444Z,36.90
2022-11-13T16:40:22.528Z,36.22
2022-11-13T16:42:51.561Z,38.50
2022-11-13T16:45:19.932Z,35.83
2022-11-13T16:47:49.775Z,36.47
2022-11-13T16:50:22.161Z,37.38
2022-11-13T16:52:51.898Z,40.65
2022-11-13T16:55:19.950Z,38.97
2022-11-13T16:57:48.000Z,41.05
2022-11-13T17:00:18.203Z,41.05
2022-11-13T17:02:46.638Z,39.42
2022-11-13T17:05:16.132Z,41.95
2022-11-13T17:10:32.604Z,63.53
2022-11-13T17:13:01.523Z,48.70
2022-11-13T17:15:29.659Z,46.38
2022-11-13T17:17:58.494Z,44.92
2022-11-13T17:20:27.177Z,42.88
2022-11-13T17:22:58.042Z,37.50
2022-11-13T17:25:27.979Z,42.55
2022-11-13T17:27:56.022Z,45.03
2022-11-13T17:30:24.317Z,42.58
2022-11-13T17:32:52.343Z,45.47
2022-11-13T17:35:20.366Z,44.60
2022-11-13T17:37:48.382Z,46.88
2022-11-13T17:40:18.141Z,41.50
2022-11-13T17:42:47.881Z,41.83
2022-11-13T17:45:16.205Z,41.85
2022-11-13T17:47:44.669Z,41.20
2022-11-13T17:50:12.773Z,43.35
2022-11-13T17:52:40.799Z,42.35
2022-11-13T17:55:11.795Z,40.03
2022-11-13T17:57:41.214Z,42.05
2022-11-13T18:00:10.591Z,43.03
2022-11-13T18:02:39.464Z,41.33
2022-11-13T18:05:09.763Z,28.70
2022-11-13T18:07:37.965Z,43.70
2022-11-13T18:10:06.791Z,44.75
2022-11-13T18:12:34.855Z,40.85
2022-11-13T18:15:04.720Z,40.97
2022-11-13T18:17:32.718Z,39.78
2022-11-13T18:20:02.217Z,40.78
2022-11-13T18:22:31.526Z,40.72
2022-11-13T18:25:01.413Z,41.05
2022-11-13T18:27:29.612Z,39.80
2022-11-13T18:29:57.677Z,36.85
2022-11-13T18:32:27.122Z,40.30
2022-11-13T18:34:55.264Z,37.78
2022-11-13T18:37:23.459Z,39.35
2022-11-13T18:39:51.718Z,39.17
2022-11-13T18:42:19.801Z,41.22
2022-11-13T18:44:47.811Z,38.50
2022-11-13T18:47:15.820Z,37.20
2022-11-13T18:49:45.173Z,38.85
2022-11-13T18:52:13.419Z,37.58
2022-11-13T18:54:41.569Z,37.90
2022-11-13T18:57:09.787Z,38.90
2022-11-13T18:59:37.836Z,38.25
2022-11-13T19:02:05.941Z,37.08
2022-11-13T19:04:36.263Z,38.60
2022-11-13T19:07:05.802Z,36.28
2022-11-13T19:12:01.662Z,36.78
2022-11-13T19:14:29.662Z,36.38
2022-11-13T19:16:57.634Z,35.55
2022-11-13T19:19:25.904Z,36.08
2022-11-13T19:21:53.945Z,38.38
2022-11-13T19:24:23.320Z,37.05
2022-11-13T19:26:51.347Z,36.20
2022-11-13T19:29:20.208Z,35.30
2022-11-13T19:31:48.732Z,36.22
2022-11-13T19:34:16.844Z,34.00
2022-11-13T19:36:46.482Z,37.90
2022-11-13T19:39:15.559Z,36.17
2022-11-13T19:41:44.967Z,36.80
2022-11-13T19:44:13.183Z,35.75
2022-11-13T19:46:41.139Z,34.65
2022-11-13T19:49:09.299Z,34.28
2022-11-13T19:51:37.292Z,35.95
2022-11-13T19:54:05.548Z,35.38
2022-11-13T19:56:33.587Z,31.20
2022-11-13T19:59:02.995Z,33.20
2022-11-13T20:01:32.873Z,33.00
2022-11-13T20:04:02.502Z,34.83
2022-11-13T20:08:59.768Z,25.52
2022-11-13T20:11:27.795Z,32.45
2022-11-13T20:13:57.597Z,33.72
2022-11-13T20:16:27.399Z,32.88
2022-11-13T20:18:58.141Z,32.92
2022-11-13T20:21:26.811Z,34.25
2022-11-13T20:23:57.555Z,34.95
2022-11-13T20:26:26.195Z,31.77
2022-11-13T20:28:54.233Z,33.97
2022-11-13T20:31:24.082Z,33.80
2022-11-13T20:33:55.734Z,32.88
2022-11-13T20:36:25.034Z,31.52
2022-11-13T20:38:54.816Z,32.28
2022-11-13T20:41:23.979Z,31.27
2022-11-13T20:43:52.837Z,30.52
2022-11-13T20:46:21.859Z,32.00
2022-11-13T20:48:49.881Z,34.50
2022-11-13T20:51:20.525Z,32.20
2022-11-13T20:53:48.732Z,33.42
2022-11-13T20:56:17.483Z,34.05
2022-11-13T20:58:45.455Z,37.08
2022-11-13T21:01:14.933Z,33.67
2022-11-13T21:03:44.686Z,31.60
2022-11-13T21:06:14.647Z,32.42
2022-11-13T21:08:44.800Z,32.55
2022-11-13T21:11:16.264Z,33.08
2022-11-13T21:13:44.727Z,35.47
2022-11-13T21:16:12.767Z,35.55
2022-11-13T21:18:40.935Z,35.58
2022-11-13T21:21:11.000Z,35.95
2022-11-13T21:23:39.294Z,35.05
2022-11-13T21:26:09.716Z,36.05
2022-11-13T21:28:38.091Z,36.20
2022-11-13T21:31:07.918Z,38.87
2022-11-13T21:33:37.796Z,34.03
2022-11-13T21:36:06.983Z,32.80
2022-11-13T21:38:35.313Z,33.13
2022-11-13T21:41:24.257Z,37.55
2022-11-13T21:43:57.817Z,35.83
2022-11-13T21:46:27.613Z,36.78
2022-11-13T21:48:58.160Z,34.55
2022-11-13T21:51:26.639Z,32.75
2022-11-13T21:53:54.644Z,34.05
2022-11-13T21:56:23.223Z,33.80
2022-11-13T21:58:52.755Z,35.63
2022-11-13T22:01:22.354Z,33.50
2022-11-13T22:03:51.950Z,35.08
2022-11-13T22:06:21.976Z,34.97
2022-11-13T22:08:56.275Z,36.85
2022-11-13T22:11:24.796Z,35.53
2022-11-13T22:13:54.619Z,34.13
2022-11-13T22:16:23.144Z,34.88
2022-11-13T22:18:53.658Z,28.98
2022-11-13T22:21:22.175Z,35.10
2022-11-13T22:23:50.526Z,35.00
2022-11-13T22:26:20.479Z,37.78
2022-11-13T22:28:49.173Z,37.20
2022-11-13T22:31:19.955Z,40.45
2022-11-13T22:33:50.549Z,39.47
2022-11-13T22:36:23.898Z,38.53
2022-11-13T22:38:52.373Z,40.97
2022-11-13T22:41:23.700Z,39.65
2022-11-13T22:43:53.161Z,40.10
2022-11-13T22:46:24.946Z,37.05
2022-11-13T22:48:54.685Z,40.58
2022-11-13T22:51:24.578Z,40.55
2022-11-13T22:53:54.891Z,39.58
2022-11-13T22:56:25.003Z,41.10
2022-11-13T22:58:54.590Z,42.47
2022-11-13T23:01:25.702Z,41.85
2022-11-13T23:03:55.621Z,40.17
2022-11-13T23:06:25.265Z,41.58
2022-11-13T23:08:53.770Z,39.53
2022-11-13T23:11:26.170Z,40.05
2022-11-13T23:13:56.470Z,38.78
2022-11-13T23:16:27.675Z,39.42
2022-11-13T23:18:57.254Z,40.55
2022-11-13T23:23:53.555Z,37.58
2022-11-13T23:26:22.352Z,41.05
2022-11-13T23:28:50.429Z,38.70
2022-11-13T23:31:18.549Z,38.80
2022-11-13T23:33:48.258Z,40.28
2022-11-13T23:38:46.463Z,34.97
2022-11-13T23:41:14.479Z,39.28
2022-11-13T23:46:30.607Z,42.08
2022-11-13T23:49:00.004Z,40.25
2022-11-13T23:51:28.004Z,41.83
2022-11-13T23:53:56.005Z,38.90
2022-11-13T23:56:24.038Z,38.42
2022-11-13T23:58:53.197Z,38.90
